Time;durP1;ratioP1;P1;durP2;ratioP2;P2;SDS_P1;SDS_P2;PMS_P1;PMS_P2;Temp;Humidity;BMP_temperature;BMP_pressure;BME280_temperature;BME280_humidity;BME280_pressure;Samples;Min_cycle;Max_cycle;Signal;HPM_P1;HPM_P2
2022/03/21 00:02:11;;;;;;;;;58.25;47.75;;;;;;;;5069446;28;45655;-61
2022/03/21 00:04:36;;;;;;;;;60.75;49.00;;;;;;;;5048968;28;45478;-62
2022/03/21 00:07:01;;;;;;;;;54.00;44.50;;;;;;;;5054255;28;45609;-62
2022/03/21 00:09:27;;;;;;;;;55.00;43.00;;;;;;;;5073450;28;45357;-61
2022/03/21 00:11:53;;;;;;;;;61.25;47.25;;;;;;;;5069273;28;45473;-63
2022/03/21 00:14:18;;;;;;;;;62.00;48.75;;;;;;;;5069359;28;45415;-63
2022/03/21 00:16:44;;;;;;;;;61.50;50.75;;;;;;;;5051522;28;45378;-63
2022/03/21 00:19:09;;;;;;;;;55.00;47.50;;;;;;;;5069756;28;45313;-61
2022/03/21 00:21:35;;;;;;;;;58.75;46.00;;;;;;;;5056041;28;46389;-62
2022/03/21 00:24:00;;;;;;;;;61.75;47.50;;;;;;;;5069458;28;45580;-62
2022/03/21 00:26:25;;;;;;;;;58.25;46.25;;;;;;;;5051137;28;45501;-62
2022/03/21 00:28:51;;;;;;;;;57.25;47.25;;;;;;;;5051416;28;45391;-62
2022/03/21 00:31:16;;;;;;;;;54.75;46.00;;;;;;;;5037195;28;45568;-62
2022/03/21 00:33:42;;;;;;;;;66.75;50.25;;;;;;;;5073925;28;45390;-62
2022/03/21 00:36:08;;;;;;;;;59.00;48.75;;;;;;;;5067460;28;45587;-62
2022/03/21 00:38:36;;;;;;;;;58.25;45.50;;;;;;;;5049742;28;45489;-63
2022/03/21 00:41:01;;;;;;;;;58.75;49.50;;;;;;;;5070339;28;45635;-62
2022/03/21 00:43:26;;;;;;;;;60.25;49.50;;;;;;;;5069750;28;45413;-62
2022/03/21 00:45:53;;;;;;;;;57.75;48.75;;;;;;;;5056331;28;45366;-62
2022/03/21 00:48:19;;;;;;;;;53.75;44.50;;;;;;;;5070529;28;45225;-62
2022/03/21 00:50:44;;;;;;;;;59.50;49.75;;;;;;;;5070634;28;46174;-63
2022/03/21 00:53:10;;;;;;;;;63.50;50.25;;;;;;;;5054177;28;45613;-62
2022/03/21 00:55:35;;;;;;;;;59.75;47.50;;;;;;;;5072882;28;45348;-62
2022/03/21 00:58:00;;;;;;;;;60.25;47.25;;;;;;;;5075840;28;45357;-63
2022/03/21 01:00:27;;;;;;;;;60.25;50.25;;;;;;;;5075681;28;45488;-63
2022/03/21 01:02:53;;;;;;;;;65.75;53.25;;;;;;;;5054272;28;45428;-63
2022/03/21 01:05:19;;;;;;;;;62.25;49.50;;;;;;;;5054249;28;45534;-62
2022/03/21 01:07:44;;;;;;;;;61.50;47.25;;;;;;;;5072529;28;45439;-63
2022/03/21 01:10:13;;;;;;;;;62.50;51.00;;;;;;;;5073617;27;46634;-63
2022/03/21 01:12:39;;;;;;;;;56.75;48.00;;;;;;;;5076940;28;45421;-64
2022/03/21 01:15:04;;;;;;;;;58.25;49.00;;;;;;;;5071982;28;45606;-63
2022/03/21 01:17:30;;;;;;;;;64.50;51.00;;;;;;;;5071718;28;45490;-62
2022/03/21 01:19:55;;;;;;;;;65.25;50.25;;;;;;;;5072004;27;45658;-62
2022/03/21 01:22:20;;;;;;;;;58.50;48.50;;;;;;;;5072270;27;45456;-63
2022/03/21 01:24:45;;;;;;;;;49.75;43.00;;;;;;;;5078738;28;45345;-63
2022/03/21 01:27:11;;;;;;;;;61.75;49.00;;;;;;;;5072221;27;45310;-63
2022/03/21 01:29:36;;;;;;;;;60.75;48.25;;;;;;;;5071895;27;46266;-63
2022/03/21 01:32:02;;;;;;;;;61.00;49.75;;;;;;;;5053246;28;46160;-63
2022/03/21 01:34:27;;;;;;;;;59.25;46.75;;;;;;;;5071104;27;45465;-63
2022/03/21 01:36:53;;;;;;;;;64.50;50.00;;;;;;;;5077037;28;45413;-63
2022/03/21 01:39:19;;;;;;;;;61.50;49.25;;;;;;;;5059743;28;48508;-63
2022/03/21 01:41:44;;;;;;;;;58.25;49.00;;;;;;;;5049469;28;45524;-63
2022/03/21 01:44:10;;;;;;;;;59.00;48.75;;;;;;;;5071964;28;45348;-62
2022/03/21 01:46:36;;;;;;;;;61.50;49.00;;;;;;;;5072110;27;45445;-63
2022/03/21 01:49:02;;;;;;;;;67.75;52.75;;;;;;;;5074637;28;46626;-63
2022/03/21 01:51:28;;;;;;;;;60.25;49.00;;;;;;;;5075521;27;45349;-63
2022/03/21 01:56:38;;;;;;;;;58.50;48.00;;;;;;;;5071658;28;45449;-63
2022/03/21 01:59:04;;;;;;;;;65.00;50.50;;;;;;;;5071514;28;45831;-61
2022/03/21 02:01:29;;;;;;;;;58.25;45.50;;;;;;;;5071236;28;45413;-61
2022/03/21 02:03:55;;;;;;;;;63.25;49.00;;;;;;;;5058169;28;45386;-62
2022/03/21 02:06:21;;;;;;;;;62.25;48.75;;;;;;;;5073141;28;45544;-62
2022/03/21 02:08:46;;;;;;;;;58.25;48.25;;;;;;;;5071285;28;45714;-62
2022/03/21 02:11:12;;;;;;;;;58.50;47.00;;;;;;;;5071429;28;45290;-62
2022/03/21 02:13:38;;;;;;;;;64.00;50.50;;;;;;;;5071478;28;45338;-62
2022/03/21 02:16:04;;;;;;;;;58.00;47.50;;;;;;;;5073997;28;45300;-62
2022/03/21 02:18:29;;;;;;;;;54.25;44.50;;;;;;;;5073044;28;46907;-62
2022/03/21 02:20:56;;;;;;;;;60.25;46.50;;;;;;;;5071251;28;45311;-62
2022/03/21 02:23:38;;;;;;;;;60.75;50.25;;;;;;;;5071652;28;45296;-61
2022/03/21 02:26:06;;;;;;;;;57.00;46.75;;;;;;;;5071242;27;45501;-62
2022/03/21 02:28:31;;;;;;;;;59.50;49.00;;;;;;;;5052925;28;46540;-62
2022/03/21 02:30:57;;;;;;;;;59.25;46.75;;;;;;;;5075560;28;45319;-62
2022/03/21 02:33:23;;;;;;;;;61.50;46.00;;;;;;;;5060309;27;45485;-61
2022/03/21 02:35:49;;;;;;;;;56.25;45.25;;;;;;;;5066099;28;45862;-62
2022/03/21 02:38:16;;;;;;;;;58.75;49.25;;;;;;;;5070825;28;45834;-62
2022/03/21 02:40:41;;;;;;;;;60.75;49.75;;;;;;;;5052925;28;45586;-61
2022/03/21 02:43:06;;;;;;;;;57.75;44.75;;;;;;;;5072980;28;47136;-62
2022/03/21 02:45:32;;;;;;;;;56.75;47.25;;;;;;;;5075769;28;45359;-62
2022/03/21 02:47:57;;;;;;;;;61.00;47.00;;;;;;;;5070771;28;45641;-62
2022/03/21 02:50:26;;;;;;;;;50.75;43.50;;;;;;;;5070726;28;45528;-62
2022/03/21 02:52:52;;;;;;;;;57.25;46.00;;;;;;;;5070927;28;45436;-62
2022/03/21 02:55:17;;;;;;;;;56.50;47.50;;;;;;;;5071368;28;45408;-62
2022/03/21 02:57:43;;;;;;;;;55.00;45.00;;;;;;;;5059882;28;47678;-62
2022/03/21 03:00:08;;;;;;;;;53.25;44.25;;;;;;;;5069830;28;45521;-62
2022/03/21 03:02:33;;;;;;;;;55.75;46.00;;;;;;;;5052651;28;45481;-62
2022/03/21 03:04:58;;;;;;;;;58.25;49.75;;;;;;;;5070596;28;45157;-63
2022/03/21 03:07:24;;;;;;;;;54.75;45.50;;;;;;;;5070424;28;46883;-62
2022/03/21 03:09:49;;;;;;;;;58.25;46.75;;;;;;;;5076784;28;45373;-62
2022/03/21 03:12:14;;;;;;;;;49.50;41.00;;;;;;;;5057439;28;45180;-62
2022/03/21 03:14:39;;;;;;;;;56.50;44.00;;;;;;;;5063573;28;45421;-62
2022/03/21 03:17:06;;;;;;;;;56.75;47.75;;;;;;;;5070339;28;46586;-63
2022/03/21 03:19:31;;;;;;;;;59.75;47.25;;;;;;;;5070476;28;45318;-62
2022/03/21 03:21:57;;;;;;;;;52.75;43.00;;;;;;;;5075020;28;45350;-62
2022/03/21 03:24:24;;;;;;;;;57.75;46.25;;;;;;;;5072353;28;45435;-62
2022/03/21 03:26:53;;;;;;;;;59.50;48.50;;;;;;;;5070164;28;46287;-62
2022/03/21 03:29:18;;;;;;;;;57.75;47.00;;;;;;;;5051292;28;45462;-63
2022/03/21 03:31:43;;;;;;;;;57.25;45.75;;;;;;;;5069960;28;45713;-63
2022/03/21 03:34:09;;;;;;;;;56.50;47.25;;;;;;;;5071958;28;45513;-62
2022/03/21 03:36:35;;;;;;;;;56.00;45.50;;;;;;;;5074763;28;45341;-62
2022/03/21 03:39:00;;;;;;;;;54.25;44.50;;;;;;;;5051995;28;45642;-63
2022/03/21 03:41:27;;;;;;;;;55.50;44.00;;;;;;;;5051911;28;45489;-62
2022/03/21 03:43:52;;;;;;;;;60.00;45.25;;;;;;;;5070005;28;45605;-63
2022/03/21 03:46:18;;;;;;;;;57.75;46.50;;;;;;;;5070270;28;46461;-62
2022/03/21 03:48:43;;;;;;;;;58.50;48.25;;;;;;;;5076208;28;45417;-62
2022/03/21 03:51:10;;;;;;;;;55.75;47.50;;;;;;;;5069985;28;45361;-63
2022/03/21 03:53:35;;;;;;;;;51.25;42.50;;;;;;;;5051553;28;45393;-62
2022/03/21 03:56:00;;;;;;;;;56.75;46.50;;;;;;;;5069780;28;45425;-62
2022/03/21 03:58:25;;;;;;;;;63.25;47.50;;;;;;;;5069801;28;45463;-62
2022/03/21 04:00:53;;;;;;;;;58.00;47.75;;;;;;;;5075661;28;45377;-62
2022/03/21 04:06:02;;;;;;;;;55.00;46.00;;;;;;;;5069423;28;45382;-62
2022/03/21 04:08:28;;;;;;;;;57.75;45.50;;;;;;;;5069439;28;45489;-62
2022/03/21 04:10:53;;;;;;;;;63.75;49.00;;;;;;;;5069744;27;45255;-62
2022/03/21 04:13:19;;;;;;;;;61.25;46.75;;;;;;;;5070050;28;45354;-62
2022/03/21 04:15:44;;;;;;;;;55.50;44.50;;;;;;;;5075612;27;45524;-63
2022/03/21 04:18:09;;;;;;;;;55.25;44.75;;;;;;;;5051300;28;45258;-62
2022/03/21 04:20:36;;;;;;;;;56.50;45.00;;;;;;;;5069328;28;45520;-63
2022/03/21 04:23:02;;;;;;;;;56.50;47.00;;;;;;;;5051575;28;45301;-62
2022/03/21 04:25:27;;;;;;;;;56.75;43.25;;;;;;;;5070599;28;46228;-62
2022/03/21 04:27:53;;;;;;;;;53.00;44.25;;;;;;;;5074535;28;45389;-62
2022/03/21 04:30:18;;;;;;;;;53.50;44.00;;;;;;;;5070636;28;45479;-62
2022/03/21 04:32:44;;;;;;;;;52.50;44.25;;;;;;;;5069250;28;45420;-62
2022/03/21 04:35:10;;;;;;;;;59.00;44.25;;;;;;;;5050742;28;48562;-63
2022/03/21 04:37:35;;;;;;;;;55.00;44.75;;;;;;;;5069336;28;45388;-62
2022/03/21 04:40:00;;;;;;;;;47.75;40.00;;;;;;;;5073024;28;45338;-62
2022/03/21 04:42:25;;;;;;;;;53.75;45.25;;;;;;;;5072203;28;45440;-62
2022/03/21 04:44:51;;;;;;;;;54.75;45.50;;;;;;;;5068999;28;46463;-62
2022/03/21 04:47:17;;;;;;;;;52.25;43.50;;;;;;;;5068929;28;45340;-62
2022/03/21 04:49:42;;;;;;;;;56.75;47.00;;;;;;;;5051054;28;45239;-62
2022/03/21 04:52:08;;;;;;;;;58.50;45.00;;;;;;;;5070887;28;45234;-63
2022/03/21 04:54:33;;;;;;;;;46.50;40.25;;;;;;;;5073537;28;45590;-63
2022/03/21 04:56:58;;;;;;;;;57.50;46.00;;;;;;;;5068940;28;45544;-62
2022/03/21 04:59:23;;;;;;;;;56.75;46.25;;;;;;;;5069071;28;45396;-62
2022/03/21 05:01:48;;;;;;;;;59.00;47.25;;;;;;;;5069119;28;45443;-63
2022/03/21 05:04:14;;;;;;;;;54.75;46.25;;;;;;;;5069750;28;45529;-62
2022/03/21 05:06:39;;;;;;;;;55.00;44.25;;;;;;;;5074506;28;45406;-62
2022/03/21 05:09:05;;;;;;;;;63.75;48.25;;;;;;;;5069077;28;45655;-62
2022/03/21 05:11:30;;;;;;;;;56.00;45.25;;;;;;;;5044664;28;45605;-62
2022/03/21 05:13:56;;;;;;;;;56.50;43.00;;;;;;;;5068496;28;45557;-62
2022/03/21 05:16:21;;;;;;;;;54.50;46.00;;;;;;;;5068925;28;45334;-62
2022/03/21 05:18:47;;;;;;;;;57.00;45.25;;;;;;;;5075433;28;45838;-62
2022/03/21 05:21:12;;;;;;;;;57.50;47.50;;;;;;;;5050595;28;45432;-62
2022/03/21 05:31:53;;;;;;;;;59.50;47.25;;;;;;;;5027140;28;45396;-62
2022/03/21 05:37:02;;;;;;;;;62.25;47.25;;;;;;;;5015261;28;45277;-62
2022/03/21 05:39:27;;;;;;;;;57.50;46.25;;;;;;;;5002701;28;45836;-62
2022/03/21 05:41:53;;;;;;;;;54.50;46.00;;;;;;;;5021102;28;45458;-62
2022/03/21 05:44:18;;;;;;;;;54.75;46.25;;;;;;;;5029053;28;48345;-62
2022/03/21 05:46:43;;;;;;;;;63.50;48.00;;;;;;;;5016958;28;45437;-62
2022/03/21 05:49:09;;;;;;;;;52.00;44.00;;;;;;;;5035065;28;45463;-62
2022/03/21 05:51:37;;;;;;;;;52.75;44.50;;;;;;;;5016917;28;45473;-62
2022/03/21 05:54:05;;;;;;;;;55.75;45.50;;;;;;;;5014915;28;46829;-62
2022/03/21 05:56:30;;;;;;;;;56.25;45.75;;;;;;;;5034553;28;45415;-62
2022/03/21 05:58:56;;;;;;;;;54.75;46.25;;;;;;;;5034504;28;45573;-62
2022/03/21 06:01:22;;;;;;;;;56.25;45.25;;;;;;;;5034647;28;45287;-63
2022/03/21 06:03:48;;;;;;;;;55.75;45.75;;;;;;;;5035312;28;45382;-64
2022/03/21 06:09:16;;;;;;;;;55.25;43.50;;;;;;;;5053374;28;45378;-64
2022/03/21 06:11:48;;;;;;;;;54.75;44.00;;;;;;;;5061771;27;45256;-63
2022/03/21 06:14:13;;;;;;;;;52.50;41.00;;;;;;;;5051831;28;47841;-63
2022/03/21 06:16:38;;;;;;;;;57.50;47.00;;;;;;;;5069668;28;45431;-63
2022/03/21 06:19:03;;;;;;;;;59.25;47.50;;;;;;;;5056170;28;45678;-63
2022/03/21 06:21:29;;;;;;;;;50.75;43.25;;;;;;;;5058399;28;45564;-64
2022/03/21 06:23:54;;;;;;;;;55.50;45.75;;;;;;;;5068311;28;45285;-63
2022/03/21 06:26:20;;;;;;;;;60.75;48.75;;;;;;;;5070923;28;45396;-63
2022/03/21 06:28:45;;;;;;;;;57.75;45.00;;;;;;;;5053221;28;45362;-63
2022/03/21 06:37:16;;;;;;;;;56.25;46.50;;;;;;;;5077578;28;45389;-62
2022/03/21 06:39:43;;;;;;;;;55.75;46.00;;;;;;;;5077660;28;45314;-63
2022/03/21 06:42:45;;;;;;;;;59.25;47.50;;;;;;;;5078079;28;45744;-63
2022/03/21 06:45:32;;;;;;;;;58.50;48.50;;;;;;;;5069914;28;46094;-63
2022/03/21 06:54:18;;;;;;;;;63.75;49.50;;;;;;;;5076551;28;45340;-63
2022/03/21 06:56:56;;;;;;;;;48.75;41.00;;;;;;;;5058930;28;48527;-63
2022/03/21 06:59:21;;;;;;;;;54.25;44.50;;;;;;;;5052281;28;45814;-63
2022/03/21 07:01:46;;;;;;;;;59.75;47.25;;;;;;;;5052859;28;45396;-63
2022/03/21 07:04:11;;;;;;;;;60.75;48.50;;;;;;;;5053537;28;45531;-63
2022/03/21 07:06:37;;;;;;;;;57.50;46.75;;;;;;;;5057335;28;48975;-63
2022/03/21 07:09:02;;;;;;;;;59.00;48.00;;;;;;;;5068904;28;45534;-63
2022/03/21 07:11:29;;;;;;;;;60.25;48.75;;;;;;;;5070018;28;45457;-64
2022/03/21 07:13:54;;;;;;;;;61.00;49.50;;;;;;;;5051946;28;45591;-64
2022/03/21 07:16:19;;;;;;;;;63.75;49.25;;;;;;;;5070609;27;46513;-63
2022/03/21 07:18:45;;;;;;;;;63.00;49.75;;;;;;;;5074936;28;45318;-64
2022/03/21 07:21:11;;;;;;;;;55.00;45.25;;;;;;;;5051584;28;45444;-64
2022/03/21 07:23:37;;;;;;;;;64.25;49.25;;;;;;;;5070251;27;45497;-63
2022/03/21 07:26:02;;;;;;;;;60.75;49.75;;;;;;;;5051939;28;48820;-63
2022/03/21 07:28:27;;;;;;;;;55.00;45.50;;;;;;;;5070371;28;45472;-63
2022/03/21 07:30:53;;;;;;;;;58.75;47.00;;;;;;;;5075853;27;45632;-63
2022/03/21 07:33:18;;;;;;;;;65.25;49.50;;;;;;;;5070298;28;45783;-63
2022/03/21 07:35:44;;;;;;;;;62.75;48.00;;;;;;;;5050674;28;48710;-64
2022/03/21 07:38:10;;;;;;;;;60.50;49.00;;;;;;;;5068944;28;45350;-63
2022/03/21 07:40:35;;;;;;;;;60.50;49.50;;;;;;;;5070160;28;45389;-64
2022/03/21 07:43:00;;;;;;;;;61.75;50.25;;;;;;;;5073744;28;45442;-63
2022/03/21 07:48:11;;;;;;;;;56.25;46.00;;;;;;;;5067581;28;45469;-63
2022/03/21 07:50:37;;;;;;;;;61.75;50.25;;;;;;;;5051649;28;45637;-63
2022/03/21 07:53:02;;;;;;;;;63.50;52.25;;;;;;;;5069557;28;45593;-63
2022/03/21 07:55:28;;;;;;;;;60.00;48.25;;;;;;;;5068536;28;45365;-64
2022/03/21 07:57:53;;;;;;;;;63.25;51.50;;;;;;;;5056753;28;45297;-63
2022/03/21 08:00:19;;;;;;;;;68.00;52.50;;;;;;;;5070358;28;45479;-63
2022/03/21 08:02:45;;;;;;;;;59.50;47.25;;;;;;;;5069640;28;45451;-63
2022/03/21 08:05:11;;;;;;;;;59.50;50.00;;;;;;;;5069378;28;46561;-63
2022/03/21 08:07:37;;;;;;;;;59.25;48.50;;;;;;;;5069472;27;45558;-63
2022/03/21 08:10:05;;;;;;;;;65.25;52.75;;;;;;;;5073177;28;45290;-64
2022/03/21 08:12:30;;;;;;;;;56.25;46.50;;;;;;;;5053436;28;45361;-63
2022/03/21 08:14:56;;;;;;;;;60.25;49.00;;;;;;;;5069315;28;45661;-63
2022/03/21 08:17:22;;;;;;;;;57.75;46.50;;;;;;;;5069396;28;45399;-63
2022/03/21 08:19:47;;;;;;;;;68.00;52.25;;;;;;;;5069795;28;45306;-63
2022/03/21 08:22:14;;;;;;;;;60.00;48.75;;;;;;;;5052586;28;45488;-64
2022/03/21 08:24:39;;;;;;;;;60.25;49.25;;;;;;;;5057948;28;47546;-64
2022/03/21 08:27:07;;;;;;;;;66.25;51.25;;;;;;;;5048302;28;45992;-63
2022/03/21 08:29:33;;;;;;;;;61.25;50.00;;;;;;;;5050791;28;45698;-63
2022/03/21 08:31:58;;;;;;;;;60.25;48.25;;;;;;;;5069027;28;45338;-64
2022/03/21 08:34:23;;;;;;;;;61.25;50.25;;;;;;;;5050690;28;46234;-64
2022/03/21 08:36:49;;;;;;;;;63.25;49.00;;;;;;;;5075719;28;45373;-64
2022/03/21 08:39:14;;;;;;;;;63.50;50.75;;;;;;;;5051202;28;45601;-64
2022/03/21 08:41:40;;;;;;;;;55.25;45.25;;;;;;;;5050937;28;45451;-64
2022/03/21 08:44:05;;;;;;;;;62.75;48.50;;;;;;;;5069002;28;46395;-64
2022/03/21 08:46:30;;;;;;;;;52.00;43.25;;;;;;;;5069254;27;45238;-64
2022/03/21 08:51:39;;;;;;;;;43.75;37.50;;;;;;;;5073817;28;45329;-65
2022/03/21 08:54:05;;;;;;;;;46.25;40.00;;;;;;;;5067305;28;46458;-64
2022/03/21 08:56:30;;;;;;;;;48.50;39.50;;;;;;;;5068139;28;45299;-65
2022/03/21 08:58:56;;;;;;;;;50.00;41.00;;;;;;;;5069193;28;45239;-65
2022/03/21 09:01:23;;;;;;;;;47.50;39.00;;;;;;;;5051028;28;45364;-64
2022/03/21 09:03:49;;;;;;;;;50.00;42.25;;;;;;;;5065576;28;46459;-64
2022/03/21 09:06:15;;;;;;;;;48.75;39.25;;;;;;;;5068624;28;45457;-64
2022/03/21 09:08:42;;;;;;;;;45.25;38.50;;;;;;;;5068809;28;45600;-64
2022/03/21 09:11:07;;;;;;;;;46.25;38.50;;;;;;;;5069576;28;45525;-63
2022/03/21 09:13:33;;;;;;;;;43.75;37.25;;;;;;;;5072525;28;46255;-64
2022/03/21 09:15:58;;;;;;;;;43.00;39.75;;;;;;;;5076787;28;45313;-64
2022/03/21 09:18:23;;;;;;;;;44.00;37.75;;;;;;;;5074390;28;45263;-63
2022/03/21 09:20:48;;;;;;;;;39.00;36.00;;;;;;;;5072356;28;45686;-63
2022/03/21 09:23:14;;;;;;;;;42.25;33.75;;;;;;;;5053777;28;47494;-64
2022/03/21 09:25:39;;;;;;;;;33.25;31.00;;;;;;;;5072440;28;45432;-63
2022/03/21 09:28:04;;;;;;;;;28.25;26.75;;;;;;;;5075223;28;45285;-64
2022/03/21 09:30:29;;;;;;;;;40.50;34.00;;;;;;;;5060959;28;45720;-63
2022/03/21 09:32:55;;;;;;;;;30.00;28.00;;;;;;;;5068970;28;45973;-64
2022/03/21 09:35:20;;;;;;;;;35.75;31.25;;;;;;;;5071877;28;45545;-63
2022/03/21 09:37:45;;;;;;;;;32.00;27.00;;;;;;;;5072271;28;45427;-64
2022/03/21 09:40:11;;;;;;;;;28.25;27.00;;;;;;;;5055324;28;45646;-64
2022/03/21 09:42:38;;;;;;;;;32.75;27.25;;;;;;;;5061029;28;47676;-65
2022/03/21 09:45:04;;;;;;;;;31.00;27.00;;;;;;;;5068394;28;47814;-65
2022/03/21 09:50:14;;;;;;;;;30.75;25.75;;;;;;;;5071639;28;45307;-64
2022/03/21 09:52:39;;;;;;;;;24.00;23.75;;;;;;;;5071603;28;45424;-65
2022/03/21 09:55:05;;;;;;;;;30.00;27.50;;;;;;;;5074501;28;45290;-65
2022/03/21 09:57:32;;;;;;;;;26.75;25.50;;;;;;;;5057906;28;45417;-64
2022/03/21 09:59:58;;;;;;;;;25.25;24.50;;;;;;;;5071541;28;45481;-64
2022/03/21 10:02:24;;;;;;;;;20.25;19.00;;;;;;;;5071537;28;46400;-64
2022/03/21 10:04:50;;;;;;;;;19.50;19.50;;;;;;;;5053560;28;46269;-64
2022/03/21 10:07:22;;;;;;;;;13.50;12.50;;;;;;;;5054231;28;45324;-63
2022/03/21 10:10:04;;;;;;;;;22.00;22.00;;;;;;;;5067683;28;45298;-64
2022/03/21 10:12:29;;;;;;;;;26.75;24.75;;;;;;;;5059950;28;47574;-64
2022/03/21 10:14:56;;;;;;;;;25.50;22.50;;;;;;;;5058171;28;45479;-65
2022/03/21 10:17:25;;;;;;;;;19.25;18.50;;;;;;;;5045723;28;45526;-65
2022/03/21 10:19:53;;;;;;;;;20.00;20.00;;;;;;;;5071470;28;45341;-65
2022/03/21 10:22:33;;;;;;;;;23.25;17.75;;;;;;;;5071174;28;46686;-65
2022/03/21 10:25:02;;;;;;;;;26.25;24.50;;;;;;;;5069789;27;45381;-65
2022/03/21 10:27:29;;;;;;;;;20.00;20.00;;;;;;;;5059733;28;45389;-65
2022/03/21 10:29:59;;;;;;;;;19.25;19.25;;;;;;;;5049239;28;45381;-64
2022/03/21 10:32:39;;;;;;;;;18.00;17.25;;;;;;;;5052442;28;48738;-64
2022/03/21 10:35:16;;;;;;;;;14.50;14.50;;;;;;;;5070562;27;45418;-64
2022/03/21 10:37:48;;;;;;;;;16.75;16.75;;;;;;;;5052969;28;45455;-65
2022/03/21 10:40:17;;;;;;;;;15.25;15.25;;;;;;;;5072417;27;45385;-65
2022/03/21 10:42:55;;;;;;;;;19.75;19.50;;;;;;;;5076651;28;46339;-65
2022/03/21 10:45:20;;;;;;;;;17.50;17.50;;;;;;;;5053958;28;45405;-64
2022/03/21 10:47:52;;;;;;;;;19.75;19.00;;;;;;;;5064602;28;45340;-63
2022/03/21 10:50:31;;;;;;;;;20.00;19.00;;;;;;;;5052057;28;45328;-65
2022/03/21 10:53:12;;;;;;;;;22.75;19.50;;;;;;;;5052332;28;47704;-63
2022/03/21 10:55:38;;;;;;;;;30.50;28.50;;;;;;;;5052359;28;45529;-64
2022/03/21 10:58:03;;;;;;;;;22.75;21.00;;;;;;;;5055781;28;45377;-64
2022/03/21 11:00:29;;;;;;;;;19.00;18.50;;;;;;;;5055711;28;45668;-63
2022/03/21 11:03:05;;;;;;;;;24.50;22.25;;;;;;;;5070182;28;46052;-64
2022/03/21 11:05:32;;;;;;;;;13.25;13.25;;;;;;;;5052469;28;45525;-64
2022/03/21 11:07:58;;;;;;;;;21.25;20.00;;;;;;;;5070525;28;45482;-64
2022/03/21 11:10:26;;;;;;;;;13.50;12.75;;;;;;;;5070537;28;45296;-62
2022/03/21 11:12:51;;;;;;;;;20.75;18.75;;;;;;;;5058253;28;46861;-64
2022/03/21 11:15:17;;;;;;;;;20.75;19.50;;;;;;;;5070535;28;45478;-64
2022/03/21 11:17:42;;;;;;;;;26.25;24.00;;;;;;;;5070519;28;45390;-63
2022/03/21 11:20:08;;;;;;;;;17.75;17.75;;;;;;;;5070538;28;45338;-64
2022/03/21 11:22:34;;;;;;;;;20.00;16.50;;;;;;;;5052015;28;47614;-65
2022/03/21 11:25:00;;;;;;;;;19.00;17.25;;;;;;;;5056252;28;45349;-65
2022/03/21 11:27:44;;;;;;;;;16.25;15.50;;;;;;;;5058971;28;45442;-66
2022/03/21 11:30:18;;;;;;;;;15.75;15.75;;;;;;;;5069069;28;45474;-64
2022/03/21 11:33:02;;;;;;;;;15.50;14.25;;;;;;;;5069982;28;46862;-63
2022/03/21 11:35:28;;;;;;;;;12.75;12.50;;;;;;;;5050978;28;45876;-66
2022/03/21 11:37:55;;;;;;;;;17.00;15.25;;;;;;;;5070373;28;45555;-64
2022/03/21 11:40:28;;;;;;;;;11.50;11.50;;;;;;;;5051482;28;45385;-65
2022/03/21 11:43:12;;;;;;;;;14.25;13.75;;;;;;;;5066998;28;48519;-65
2022/03/21 11:45:37;;;;;;;;;12.50;12.50;;;;;;;;5073179;28;45325;-64
2022/03/21 11:48:18;;;;;;;;;11.50;11.50;;;;;;;;5051586;28;45436;-64
2022/03/21 11:50:48;;;;;;;;;10.50;10.00;;;;;;;;5050844;28;45492;-64
2022/03/21 11:53:14;;;;;;;;;9.25;9.25;;;;;;;;5051275;28;47993;-65
2022/03/21 11:55:43;;;;;;;;;11.75;11.75;;;;;;;;5069787;28;45515;-65
2022/03/21 11:58:27;;;;;;;;;14.25;14.25;;;;;;;;5054255;28;45571;-65
2022/03/21 12:01:05;;;;;;;;;14.00;12.75;;;;;;;;5068551;28;45258;-65
2022/03/21 12:03:31;;;;;;;;;11.75;11.75;;;;;;;;5054940;28;48409;-65
2022/03/21 12:05:56;;;;;;;;;15.00;13.00;;;;;;;;5069411;27;45489;-66
2022/03/21 12:08:32;;;;;;;;;16.25;14.50;;;;;;;;5064133;28;46041;-66
2022/03/21 12:10:57;;;;;;;;;13.50;13.00;;;;;;;;5057418;28;45301;-65
2022/03/21 12:13:22;;;;;;;;;12.00;12.00;;;;;;;;5051482;28;48618;-65
2022/03/21 12:15:51;;;;;;;;;15.00;12.75;;;;;;;;5067100;28;45469;-65
2022/03/21 12:18:17;;;;;;;;;15.50;15.50;;;;;;;;5051557;28;45261;-65
2022/03/21 12:20:49;;;;;;;;;16.25;12.75;;;;;;;;5051202;28;45456;-65
2022/03/21 12:23:23;;;;;;;;;13.75;13.75;;;;;;;;5069077;28;45642;-65
2022/03/21 12:25:52;;;;;;;;;16.50;15.50;;;;;;;;5068250;28;45339;-63
2022/03/21 12:29:31;;;;;;;;;11.75;10.75;;;;;;;;5051607;28;45208;-64
2022/03/21 12:31:24;;;;;;;;;15.00;14.00;;;;;;;;5067844;28;45292;-64
2022/03/21 12:33:50;;;;;;;;;11.00;9.75;;;;;;;;5065834;28;47428;-65
2022/03/21 12:36:29;;;;;;;;;14.25;13.75;;;;;;;;5049516;28;45398;-64
2022/03/21 12:38:55;;;;;;;;;13.00;11.75;;;;;;;;5049458;28;45362;-64
2022/03/21 12:41:21;;;;;;;;;16.00;15.50;;;;;;;;5069416;27;45372;-65
2022/03/21 12:43:47;;;;;;;;;11.50;11.50;;;;;;;;5069305;28;46141;-65
2022/03/21 12:46:18;;;;;;;;;12.00;12.00;;;;;;;;5054492;28;45537;-65
2022/03/21 12:48:46;;;;;;;;;12.50;12.25;;;;;;;;5078519;27;45355;-64
2022/03/21 12:51:13;;;;;;;;;10.00;9.00;;;;;;;;5054459;28;46063;-65
2022/03/21 12:53:43;;;;;;;;;13.75;13.75;;;;;;;;5072427;27;45572;-65
2022/03/21 12:56:09;;;;;;;;;10.75;10.75;;;;;;;;5072539;28;45464;-65
2022/03/21 12:58:35;;;;;;;;;21.25;13.50;;;;;;;;5072233;28;45512;-65
2022/03/21 13:01:02;;;;;;;;;13.00;10.75;;;;;;;;5058688;28;45385;-65
2022/03/21 13:03:27;;;;;;;;;12.00;12.00;;;;;;;;5056840;28;46531;-64
2022/03/21 13:11:21;;;;;;;;;15.50;12.75;;;;;;;;5072489;28;45264;-65
2022/03/21 13:13:52;;;;;;;;;7.75;7.00;;;;;;;;5054219;28;48471;-65
2022/03/21 13:16:18;;;;;;;;;15.25;15.00;;;;;;;;5055448;28;45464;-64
2022/03/21 13:18:43;;;;;;;;;14.00;12.75;;;;;;;;5061607;28;45375;-65
2022/03/21 13:21:08;;;;;;;;;13.25;11.50;;;;;;;;5070884;27;45541;-65
2022/03/21 13:23:34;;;;;;;;;13.75;13.25;;;;;;;;5071966;28;46015;-64
2022/03/21 13:26:10;;;;;;;;;15.75;14.50;;;;;;;;5072371;28;45365;-64
2022/03/21 13:28:36;;;;;;;;;12.75;12.75;;;;;;;;5072363;27;45401;-64
2022/03/21 13:31:02;;;;;;;;;14.25;13.25;;;;;;;;5057896;28;45398;-65
2022/03/21 13:33:29;;;;;;;;;15.50;14.00;;;;;;;;5074693;28;45578;-65
2022/03/21 13:35:58;;;;;;;;;15.50;15.50;;;;;;;;5071599;27;45264;-65
2022/03/21 13:38:24;;;;;;;;;15.75;14.75;;;;;;;;5053911;28;45430;-65
2022/03/21 13:40:49;;;;;;;;;18.75;18.50;;;;;;;;5071892;28;45280;-64
2022/03/21 13:43:19;;;;;;;;;17.00;14.75;;;;;;;;5072887;28;45901;-66
2022/03/21 13:45:45;;;;;;;;;14.50;13.50;;;;;;;;5077519;28;45432;-65
2022/03/21 13:48:10;;;;;;;;;17.25;14.00;;;;;;;;5053238;28;45496;-64
2022/03/21 13:50:39;;;;;;;;;15.00;15.00;;;;;;;;5071755;27;45522;-64
2022/03/21 13:53:23;;;;;;;;;18.75;16.25;;;;;;;;5071642;28;46377;-65
2022/03/21 13:55:49;;;;;;;;;15.75;14.75;;;;;;;;5071857;27;45480;-64
2022/03/21 13:58:23;;;;;;;;;14.00;14.00;;;;;;;;5054270;28;45388;-65
2022/03/21 14:00:48;;;;;;;;;19.00;14.50;;;;;;;;5078416;28;45288;-64
2022/03/21 14:03:30;;;;;;;;;18.00;16.25;;;;;;;;5052977;28;46473;-64
2022/03/21 14:05:56;;;;;;;;;14.00;13.75;;;;;;;;5053257;28;46433;-63
2022/03/21 14:08:22;;;;;;;;;12.50;12.50;;;;;;;;5071436;28;45496;-64
2022/03/21 14:10:48;;;;;;;;;11.75;11.50;;;;;;;;5053429;28;45311;-63
2022/03/21 14:13:25;;;;;;;;;16.50;14.25;;;;;;;;5072535;28;45890;-65
2022/03/21 14:15:51;;;;;;;;;11.75;11.75;;;;;;;;5067776;28;46509;-65
2022/03/21 14:18:25;;;;;;;;;15.75;13.50;;;;;;;;5071094;28;45513;-65
2022/03/21 14:20:51;;;;;;;;;12.00;12.00;;;;;;;;5053055;28;45592;-66
2022/03/21 14:23:16;;;;;;;;;12.00;12.00;;;;;;;;5070976;28;45515;-65
2022/03/21 14:28:25;;;;;;;;;14.75;14.75;;;;;;;;5040047;28;45507;-65
2022/03/21 14:30:50;;;;;;;;;13.25;13.25;;;;;;;;5059330;28;45428;-65
2022/03/21 14:33:16;;;;;;;;;10.75;10.75;;;;;;;;5070855;28;46510;-64
2022/03/21 14:35:41;;;;;;;;;13.00;12.00;;;;;;;;5070780;28;45341;-65
2022/03/21 14:38:07;;;;;;;;;11.00;9.25;;;;;;;;5053130;28;45380;-65
2022/03/21 14:40:32;;;;;;;;;16.75;13.75;;;;;;;;5071071;28;45524;-65
2022/03/21 14:42:58;;;;;;;;;12.50;11.75;;;;;;;;5057508;28;47650;-65
2022/03/21 14:45:23;;;;;;;;;14.75;14.75;;;;;;;;5054395;28;46137;-65
2022/03/21 14:47:48;;;;;;;;;11.50;11.50;;;;;;;;5052789;28;45412;-65
2022/03/21 14:50:17;;;;;;;;;14.25;13.50;;;;;;;;5070892;28;45310;-64
2022/03/21 14:52:42;;;;;;;;;14.00;13.00;;;;;;;;5070904;28;45714;-64
2022/03/21 14:55:08;;;;;;;;;11.00;11.00;;;;;;;;5073978;28;45304;-65
2022/03/21 14:57:33;;;;;;;;;10.25;9.25;;;;;;;;5073139;28;45474;-65
2022/03/21 14:59:58;;;;;;;;;13.75;12.75;;;;;;;;5052468;28;45731;-65
2022/03/21 15:02:24;;;;;;;;;14.00;12.75;;;;;;;;5070593;27;45360;-64
2022/03/21 15:04:49;;;;;;;;;11.75;11.75;;;;;;;;5070846;28;45293;-64